createdAt,value
2017-11-20T00:00:48.558Z,98539.52
2017-11-20T00:03:16.802Z,98540.69
2017-11-20T00:05:45.834Z,98540.79
2017-11-20T00:08:14.112Z,98545.59
2017-11-20T00:10:42.404Z,98553.86
2017-11-20T00:13:10.675Z,98544.70
2017-11-20T00:15:38.948Z,98543.06
2017-11-20T00:18:07.221Z,98543.98
2017-11-20T00:20:35.472Z,98538.06
2017-11-20T00:23:03.713Z,98532.45
2017-11-20T00:25:31.966Z,98531.03
2017-11-20T00:28:00.220Z,98534.41
2017-11-20T00:30:28.463Z,98526.50
2017-11-20T00:32:57.487Z,98523.06
2017-11-20T00:35:25.727Z,98531.44
2017-11-20T00:37:53.964Z,98536.21
2017-11-20T00:40:22.199Z,98541.82
2017-11-20T00:42:50.459Z,98539.05
2017-11-20T00:45:19.464Z,98544.48
2017-11-20T00:47:47.707Z,98537.50
2017-11-20T00:50:15.946Z,98536.80
2017-11-20T00:52:44.954Z,98525.05
2017-11-20T00:55:13.201Z,98524.71
2017-11-20T00:57:41.446Z,98529.27
2017-11-20T01:00:10.450Z,98535.96
2017-11-20T01:02:38.703Z,98533.34
2017-11-20T01:05:07.712Z,98526.06
2017-11-20T01:07:36.727Z,98529.41
2017-11-20T01:10:04.972Z,98530.87
2017-11-20T01:12:34.000Z,98535.00
2017-11-20T01:15:02.249Z,98547.61
2017-11-20T01:17:31.262Z,98548.55
2017-11-20T01:19:59.507Z,98551.73
2017-11-20T01:22:28.520Z,98553.19
2017-11-20T01:24:56.773Z,98559.73
2017-11-20T01:27:25.783Z,98559.88
2017-11-20T01:29:54.033Z,98558.19
2017-11-20T01:32:22.268Z,98564.98
2017-11-20T01:34:50.521Z,98562.48
2017-11-20T01:37:18.767Z,98570.62
2017-11-20T01:39:47.796Z,98571.91
2017-11-20T01:42:16.041Z,98562.03
2017-11-20T01:44:45.047Z,98559.98
2017-11-20T01:47:13.282Z,98548.19
2017-11-20T01:49:41.534Z,98549.95
2017-11-20T01:52:09.775Z,98540.78
2017-11-20T01:54:38.785Z,98540.10
2017-11-20T01:57:07.039Z,98537.53
2017-11-20T01:59:36.044Z,98539.33
2017-11-20T02:02:04.286Z,98542.61
2017-11-20T02:04:33.294Z,98542.43
2017-11-20T02:07:01.544Z,98537.25
2017-11-20T02:09:29.792Z,98525.69
2017-11-20T02:11:58.803Z,98534.19
2017-11-20T02:14:27.054Z,98527.12
2017-11-20T02:16:55.303Z,98529.09
2017-11-20T02:19:23.547Z,98534.55
2017-11-20T02:21:51.780Z,98528.54
2017-11-20T02:24:20.020Z,98531.80
2017-11-20T02:26:48.270Z,98529.98
2017-11-20T02:29:16.506Z,98532.70
2017-11-20T02:31:44.763Z,98526.27
2017-11-20T02:34:13.005Z,98530.87
2017-11-20T02:36:42.019Z,98539.34
2017-11-20T02:39:10.267Z,98529.20
2017-11-20T02:41:38.509Z,98538.52
2017-11-20T02:44:06.754Z,98539.95
2017-11-20T02:46:35.007Z,98531.52
2017-11-20T02:49:04.010Z,98536.95
2017-11-20T02:51:32.264Z,98538.62
2017-11-20T02:54:00.497Z,98545.89
2017-11-20T02:56:28.746Z,98548.79
2017-11-20T02:58:56.989Z,98547.16
2017-11-20T03:01:26.007Z,98552.13
2017-11-20T03:03:54.252Z,98555.00
2017-11-20T03:06:22.499Z,98547.80
2017-11-20T03:08:50.737Z,98545.26
2017-11-20T03:11:18.978Z,98551.59
2017-11-20T03:13:47.221Z,98543.94
2017-11-20T03:16:15.460Z,98541.77
2017-11-20T03:18:43.712Z,98534.47
2017-11-20T03:21:12.731Z,98538.34
2017-11-20T03:23:40.971Z,98537.23
2017-11-20T03:26:09.210Z,98534.62
2017-11-20T03:28:37.459Z,98540.51
2017-11-20T03:31:05.708Z,98544.70
2017-11-20T03:33:34.729Z,98541.64
2017-11-20T03:36:02.966Z,98536.65
2017-11-20T03:38:31.984Z,98540.61
2017-11-20T03:41:00.219Z,98539.07
2017-11-20T03:43:28.463Z,98541.80
2017-11-20T03:45:56.708Z,98537.10
2017-11-20T03:48:25.740Z,98529.57
2017-11-20T03:50:53.971Z,98535.80
2017-11-20T03:53:22.970Z,98538.48
2017-11-20T03:55:51.224Z,98539.50
2017-11-20T03:58:20.224Z,98533.44
2017-11-20T04:00:49.247Z,98540.96
2017-11-20T04:03:17.483Z,98541.32
2017-11-20T04:05:45.734Z,98543.61
2017-11-20T04:08:13.978Z,98553.11
2017-11-20T04:10:42.219Z,98551.59
2017-11-20T04:13:11.227Z,98548.03
2017-11-20T04:15:39.474Z,98546.56
2017-11-20T04:18:07.718Z,98538.39
2017-11-20T04:20:35.967Z,98549.05
2017-11-20T04:23:04.200Z,98544.73
2017-11-20T04:25:32.449Z,98541.95
2017-11-20T04:28:00.706Z,98534.59
2017-11-20T04:30:28.935Z,98537.58
2017-11-20T04:32:57.950Z,98528.28
2017-11-20T04:35:26.200Z,98535.08
2017-11-20T04:37:55.207Z,98533.29
2017-11-20T04:40:24.225Z,98537.58
2017-11-20T04:42:52.455Z,98535.39
2017-11-20T04:45:20.695Z,98535.05
2017-11-20T04:47:48.947Z,98536.27
2017-11-20T04:50:17.204Z,98525.72
2017-11-20T04:52:45.443Z,98533.79
2017-11-20T04:55:13.688Z,98534.70
2017-11-20T04:57:41.927Z,98536.39
2017-11-20T05:00:10.172Z,98540.20
2017-11-20T05:02:38.414Z,98538.98
2017-11-20T05:05:06.664Z,98538.81
2017-11-20T05:07:34.952Z,98550.89
2017-11-20T05:10:03.200Z,98545.43
2017-11-20T05:12:31.456Z,98542.41
2017-11-20T05:14:59.699Z,98548.67
2017-11-20T05:17:27.955Z,98547.58
2017-11-20T05:19:56.215Z,98540.56
2017-11-20T05:22:24.472Z,98543.80
2017-11-20T05:24:52.724Z,98540.71
2017-11-20T05:27:20.971Z,98542.31
2017-11-20T05:29:49.205Z,98540.06
2017-11-20T05:32:17.460Z,98535.28
2017-11-20T05:34:45.699Z,98534.47
2017-11-20T05:37:13.940Z,98523.77
2017-11-20T05:39:42.182Z,98535.96
2017-11-20T05:42:11.198Z,98537.07
2017-11-20T05:44:40.205Z,98539.47
2017-11-20T05:47:08.467Z,98538.08
2017-11-20T05:49:37.473Z,98540.09
2017-11-20T05:52:05.706Z,98537.03
2017-11-20T05:54:33.963Z,98539.73
2017-11-20T05:57:02.202Z,98541.77
2017-11-20T05:59:30.460Z,98552.65
2017-11-20T06:01:59.478Z,98549.59
2017-11-20T06:04:27.708Z,98549.86
2017-11-20T06:06:55.941Z,98562.45
2017-11-20T06:09:24.191Z,98551.88
2017-11-20T06:11:52.437Z,98556.23
2017-11-20T06:14:21.468Z,98562.06
2017-11-20T06:16:49.716Z,98563.99
2017-11-20T06:19:18.726Z,98567.41
2017-11-20T06:21:46.970Z,98567.23
2017-11-20T06:24:15.986Z,98573.09
2017-11-20T06:26:44.248Z,98568.42
2017-11-20T06:29:12.479Z,98567.64
2017-11-20T06:31:40.725Z,98581.58
2017-11-20T06:34:08.967Z,98583.09
2017-11-20T06:36:37.973Z,98582.95
2017-11-20T06:39:06.222Z,98589.98
2017-11-20T06:41:34.508Z,98587.52
2017-11-20T06:44:02.728Z,98592.82
2017-11-20T06:46:30.991Z,98593.22
2017-11-20T06:48:59.232Z,98592.68
2017-11-20T06:51:27.459Z,98584.77
2017-11-20T06:53:55.703Z,98586.75
2017-11-20T06:56:23.950Z,98590.67
2017-11-20T06:58:52.200Z,98584.69
2017-11-20T07:01:20.442Z,98580.77
2017-11-20T07:03:48.698Z,98590.64
2017-11-20T07:06:17.695Z,98591.67
2017-11-20T07:08:46.702Z,98589.84
2017-11-20T07:11:14.951Z,98593.03
2017-11-20T07:13:44.240Z,98594.45
2017-11-20T07:16:12.567Z,98606.06
2017-11-20T07:18:40.887Z,98605.98
2017-11-20T07:21:09.174Z,98606.98
2017-11-20T07:23:38.231Z,98601.74
2017-11-20T07:26:25.008Z,98600.36
2017-11-20T07:29:11.111Z,98610.42
2017-11-20T07:31:39.418Z,98609.59
2017-11-20T07:34:25.419Z,98614.43
2017-11-20T07:37:11.500Z,98618.67
2017-11-20T07:39:39.791Z,98613.66
2017-11-20T07:42:08.056Z,98617.36
2017-11-20T07:44:36.330Z,98618.04
2017-11-20T07:47:04.608Z,98624.86
2017-11-20T07:49:32.883Z,98622.02
2017-11-20T07:52:01.166Z,98621.11
2017-11-20T07:54:29.437Z,98618.02
2017-11-20T07:56:57.713Z,98617.53
2017-11-20T07:59:25.980Z,98619.82
2017-11-20T08:01:54.259Z,98626.09
2017-11-20T08:04:22.558Z,98626.15
2017-11-20T08:06:50.834Z,98624.17
2017-11-20T08:09:19.109Z,98622.34
2017-11-20T08:11:47.403Z,98621.25
2017-11-20T08:14:16.436Z,98619.81
2017-11-20T08:16:44.709Z,98619.27
2017-11-20T08:19:12.976Z,98611.99
2017-11-20T08:21:41.243Z,98612.02
2017-11-20T08:24:09.517Z,98613.63
2017-11-20T08:26:37.775Z,98609.44
2017-11-20T08:29:06.809Z,98615.51
2017-11-20T08:31:35.092Z,98618.03
2017-11-20T08:34:03.364Z,98614.30
2017-11-20T08:36:31.640Z,98605.11
2017-11-20T08:38:59.948Z,98613.73
2017-11-20T08:41:28.219Z,98615.17
2017-11-20T08:43:56.478Z,98617.97
2017-11-20T08:46:24.739Z,98614.16
2017-11-20T08:48:53.003Z,98611.42
2017-11-20T08:51:21.275Z,98610.48
2017-11-20T08:53:49.546Z,98603.41
2017-11-20T08:56:18.577Z,98610.70
2017-11-20T08:58:46.839Z,98603.83
2017-11-20T09:01:15.125Z,98604.53
2017-11-20T09:03:43.394Z,98616.99
2017-11-20T09:06:11.651Z,98614.49
2017-11-20T09:08:39.912Z,98614.15
2017-11-20T09:11:08.942Z,98609.53
2017-11-20T09:13:37.186Z,98613.50
2017-11-20T09:16:05.522Z,98620.45
2017-11-20T09:18:33.748Z,98615.25
2017-11-20T09:21:02.007Z,98619.22
2017-11-20T09:23:31.045Z,98612.19
2017-11-20T09:25:59.326Z,98623.63
2017-11-20T09:28:27.588Z,98614.89
2017-11-20T09:30:55.868Z,98615.55
2017-11-20T09:33:24.123Z,98615.03
2017-11-20T09:35:52.410Z,98610.34
2017-11-20T09:38:20.660Z,98619.75
2017-11-20T09:40:49.693Z,98628.87
2017-11-20T09:43:17.961Z,98619.77
2017-11-20T09:45:46.214Z,98611.05
2017-11-20T09:48:14.494Z,98618.48
2017-11-20T09:50:42.761Z,98611.81
2017-11-20T09:53:11.063Z,98609.61
2017-11-20T09:55:39.337Z,98606.02
2017-11-20T09:58:07.609Z,98606.25
2017-11-20T10:00:35.874Z,98600.47
2017-11-20T10:03:04.148Z,98604.84
2017-11-20T10:05:32.425Z,98589.10
2017-11-20T10:08:00.683Z,98603.85
2017-11-20T10:10:29.733Z,98596.38
2017-11-20T10:12:58.009Z,98597.21
2017-11-20T10:15:26.274Z,98596.48
2017-11-20T10:17:54.544Z,98596.83
2017-11-20T10:20:22.837Z,98611.30
2017-11-20T10:22:51.082Z,98604.41
2017-11-20T10:25:19.356Z,98602.80
2017-11-20T10:27:47.624Z,98600.05
2017-11-20T10:30:15.915Z,98588.38
2017-11-20T10:32:44.166Z,98595.77
2017-11-20T10:35:12.431Z,98595.06
2017-11-20T10:37:41.471Z,98586.02
2017-11-20T10:40:09.730Z,98590.44
2017-11-20T10:42:37.994Z,98585.21
2017-11-20T10:45:06.276Z,98579.86
2017-11-20T10:47:34.545Z,98589.10
2017-11-20T10:50:02.815Z,98579.27
2017-11-20T10:52:31.078Z,98571.08
2017-11-20T10:55:00.110Z,98579.98
2017-11-20T10:57:28.363Z,98577.18
2017-11-20T10:59:56.876Z,98574.30
2017-11-20T11:02:25.120Z,98565.60
2017-11-20T11:04:53.393Z,98560.95
2017-11-20T11:07:21.648Z,98555.25
2017-11-20T11:09:50.659Z,98556.17
2017-11-20T11:12:18.931Z,98547.23
2017-11-20T11:14:47.203Z,98554.80
2017-11-20T11:17:16.247Z,98546.05
2017-11-20T11:19:44.507Z,98549.17
2017-11-20T11:22:12.788Z,98555.20
2017-11-20T11:24:41.052Z,98547.08
2017-11-20T11:27:09.325Z,98536.91
2017-11-20T11:29:37.602Z,98529.07
2017-11-20T11:32:05.868Z,98517.86
2017-11-20T11:34:34.138Z,98529.67
2017-11-20T11:37:02.429Z,98526.35
2017-11-20T11:39:30.698Z,98533.83
2017-11-20T11:41:58.982Z,98513.08
2017-11-20T11:44:27.257Z,98517.23
2017-11-20T11:46:55.525Z,98508.83
2017-11-20T11:49:23.800Z,98504.82
2017-11-20T11:51:52.076Z,98499.72
2017-11-20T11:54:20.339Z,98498.34
2017-11-20T11:56:48.595Z,98502.27
2017-11-20T11:59:17.618Z,98497.33
2017-11-20T12:01:45.893Z,98502.39
2017-11-20T12:04:14.162Z,98488.91
2017-11-20T12:06:42.418Z,98486.78
2017-11-20T12:09:10.673Z,98489.27
2017-11-20T12:11:38.944Z,98489.61
2017-11-20T12:14:07.208Z,98485.73
2017-11-20T12:16:35.475Z,98494.03
2017-11-20T12:19:03.743Z,98488.86
2017-11-20T12:21:32.012Z,98480.52
2017-11-20T12:24:00.272Z,98471.80
2017-11-20T12:26:28.564Z,98482.38
2017-11-20T12:28:56.831Z,98478.50
2017-11-20T12:31:25.097Z,98479.08
2017-11-20T12:33:53.376Z,98473.73
2017-11-20T12:36:21.653Z,98467.19
2017-11-20T12:38:49.930Z,98466.28
2017-11-20T12:41:18.225Z,98454.45
2017-11-20T12:43:46.493Z,98438.79
2017-11-20T12:46:14.744Z,98447.73
2017-11-20T12:48:43.772Z,98443.77
2017-11-20T12:51:12.017Z,98445.79
2017-11-20T12:53:40.302Z,98442.50
2017-11-20T12:56:08.576Z,98435.88
2017-11-20T12:58:36.849Z,98430.33
2017-11-20T13:01:05.113Z,98427.00
2017-11-20T13:03:33.392Z,98427.73
2017-11-20T13:06:02.413Z,98426.99
2017-11-20T13:08:30.678Z,98426.69
2017-11-20T13:10:58.948Z,98423.02
2017-11-20T13:13:27.239Z,98415.23
2017-11-20T13:15:55.501Z,98414.97
2017-11-20T13:18:23.804Z,98415.14
2017-11-20T13:20:52.067Z,98410.44
2017-11-20T13:23:20.365Z,98403.80
2017-11-20T13:25:48.656Z,98410.32
2017-11-20T13:28:16.954Z,98397.48
2017-11-20T13:30:46.000Z,98393.05
2017-11-20T13:33:14.267Z,98392.45
2017-11-20T13:35:42.556Z,98393.87
2017-11-20T13:38:11.593Z,98380.81
2017-11-20T13:40:40.636Z,98379.35
2017-11-20T13:43:08.915Z,98385.33
2017-11-20T13:45:37.194Z,98371.89
2017-11-20T13:48:05.460Z,98382.86
2017-11-20T13:50:33.729Z,98369.27
2017-11-20T13:53:02.001Z,98362.70
2017-11-20T13:55:30.282Z,98360.86
2017-11-20T13:57:58.566Z,98352.87
2017-11-20T14:00:26.833Z,98356.94
2017-11-20T14:02:55.096Z,98350.22
2017-11-20T14:05:23.372Z,98352.69
2017-11-20T14:07:51.644Z,98355.80
2017-11-20T14:10:19.923Z,98356.84
2017-11-20T14:12:48.197Z,98346.23
2017-11-20T14:15:16.461Z,98346.73
2017-11-20T14:17:44.741Z,98338.70
2017-11-20T14:20:13.024Z,98339.95
2017-11-20T14:22:41.293Z,98328.35
2017-11-20T14:25:09.580Z,98328.76
2017-11-20T14:27:37.866Z,98326.13
2017-11-20T14:30:06.149Z,98313.33
2017-11-20T14:32:34.419Z,98318.83
2017-11-20T14:35:02.728Z,98320.06
2017-11-20T14:37:31.000Z,98315.06
2017-11-20T14:39:59.290Z,98306.35
2017-11-20T14:42:27.572Z,98299.30
2017-11-20T14:44:55.846Z,98301.42
2017-11-20T14:47:24.105Z,98300.94
2017-11-20T14:49:52.400Z,98301.10
2017-11-20T14:52:23.417Z,98302.42
2017-11-20T14:54:51.713Z,98301.61
2017-11-20T14:57:19.984Z,98287.77
2017-11-20T14:59:48.257Z,98290.55
2017-11-20T15:02:16.544Z,98283.51
2017-11-20T15:04:44.820Z,98289.52
2017-11-20T15:07:13.100Z,98274.41
2017-11-20T15:09:42.153Z,98270.58
2017-11-20T15:12:10.442Z,98279.66
2017-11-20T15:14:38.703Z,98275.80
2017-11-20T15:17:06.978Z,98275.87
2017-11-20T15:19:35.241Z,98274.18
2017-11-20T15:22:03.520Z,98259.33
2017-11-20T15:24:31.785Z,98248.76
2017-11-20T15:27:00.057Z,98256.45
2017-11-20T15:29:28.324Z,98255.11
2017-11-20T15:31:57.401Z,98257.57
2017-11-20T15:34:25.671Z,98252.14
2017-11-20T15:36:54.710Z,98248.89
2017-11-20T15:39:22.985Z,98247.63
2017-11-20T15:41:51.268Z,98242.54
2017-11-20T15:44:19.544Z,98241.65
2017-11-20T15:46:47.809Z,98235.77
2017-11-20T15:49:16.103Z,98231.18
2017-11-20T15:51:44.405Z,98230.27
2017-11-20T15:54:12.673Z,98224.81
2017-11-20T15:56:40.956Z,98214.66
2017-11-20T15:59:09.259Z,98212.13
2017-11-20T16:01:38.296Z,98221.98
2017-11-20T16:04:06.566Z,98212.58
2017-11-20T16:06:34.841Z,98209.49
2017-11-20T16:09:03.113Z,98213.11
2017-11-20T16:11:31.406Z,98199.15
2017-11-20T16:13:59.683Z,98191.27
2017-11-20T16:16:27.963Z,98176.08
2017-11-20T16:18:56.244Z,98185.38
2017-11-20T16:21:24.515Z,98184.01
2017-11-20T16:23:52.790Z,98184.48
2017-11-20T16:26:21.051Z,98190.30
2017-11-20T16:28:49.324Z,98178.05
2017-11-20T16:31:17.602Z,98167.67
2017-11-20T16:33:45.872Z,98175.00
2017-11-20T16:36:14.164Z,98142.45
2017-11-20T16:38:43.204Z,98151.70
2017-11-20T16:41:12.274Z,98148.75
2017-11-20T16:43:40.540Z,98159.10
2017-11-20T16:46:08.817Z,98140.23
2017-11-20T16:48:37.117Z,98146.25
2017-11-20T16:51:05.398Z,98145.24
2017-11-20T16:53:33.697Z,98137.30
2017-11-20T16:56:01.961Z,98137.55
2017-11-20T16:58:48.934Z,98133.72
2017-11-20T17:01:35.177Z,98117.03
2017-11-20T17:04:03.464Z,98109.28
2017-11-20T17:06:31.724Z,98091.63
2017-11-20T17:09:00.769Z,98104.96
2017-11-20T17:11:29.020Z,98112.59
2017-11-20T17:13:57.293Z,98096.63
2017-11-20T17:16:25.563Z,98091.20
2017-11-20T17:18:53.831Z,98088.31
2017-11-20T17:21:22.110Z,98084.09
2017-11-20T17:23:50.372Z,98078.79
2017-11-20T17:26:19.423Z,98069.94
2017-11-20T17:28:47.692Z,98072.16
2017-11-20T17:31:15.963Z,98072.95
2017-11-20T17:33:44.232Z,98080.14
2017-11-20T17:36:12.504Z,98092.28
2017-11-20T17:38:40.773Z,98072.19
2017-11-20T17:41:09.046Z,98072.08
2017-11-20T17:43:37.329Z,98083.88
2017-11-20T17:46:05.617Z,98073.00
2017-11-20T17:48:33.873Z,98081.78
2017-11-20T17:51:02.139Z,98075.53
2017-11-20T17:53:31.155Z,98084.78
2017-11-20T17:55:59.439Z,98078.50
2017-11-20T17:58:27.695Z,98083.23
2017-11-20T18:00:55.976Z,98078.53
2017-11-20T18:03:24.225Z,98060.55
2017-11-20T18:05:53.259Z,98064.68
2017-11-20T18:08:21.517Z,98063.38
2017-11-20T18:10:49.817Z,98061.70
2017-11-20T18:13:18.071Z,98055.07
2017-11-20T18:15:46.333Z,98047.97
2017-11-20T18:18:14.587Z,98049.08
2017-11-20T18:20:43.634Z,98046.28
2017-11-20T18:23:11.916Z,98044.17
2017-11-20T18:25:40.968Z,98039.09
2017-11-20T18:28:09.247Z,98033.56
2017-11-20T18:30:37.499Z,98043.24
2017-11-20T18:33:06.561Z,98036.21
2017-11-20T18:35:34.837Z,98029.70
2017-11-20T18:38:03.107Z,98043.14
2017-11-20T18:40:31.389Z,98037.33
2017-11-20T18:42:59.667Z,98040.36
2017-11-20T18:45:27.944Z,98037.86
2017-11-20T18:47:56.204Z,98031.39
2017-11-20T18:50:24.480Z,98037.06
2017-11-20T18:52:52.740Z,98029.16
2017-11-20T18:55:21.021Z,98022.42
2017-11-20T18:57:49.314Z,98039.28
2017-11-20T19:00:35.483Z,98021.61
2017-11-20T19:06:44.568Z,98033.84
2017-11-20T19:09:14.632Z,98038.44
2017-11-20T19:11:43.653Z,98027.82
2017-11-20T19:14:11.910Z,98027.63
2017-11-20T19:16:40.173Z,98020.80
2017-11-20T19:19:09.190Z,98025.13
2017-11-20T19:21:37.430Z,98017.08
2017-11-20T19:24:06.447Z,98007.48
2017-11-20T19:26:34.694Z,98006.29
2017-11-20T19:29:03.714Z,98008.97
2017-11-20T19:31:31.954Z,98014.85
2017-11-20T19:34:00.205Z,98017.29
2017-11-20T19:36:28.443Z,98013.14
2017-11-20T19:38:56.695Z,98010.70
2017-11-20T19:41:25.720Z,98007.39
2017-11-20T19:43:53.973Z,98008.77
2017-11-20T19:46:22.978Z,98003.31
2017-11-20T19:48:51.233Z,98011.24
2017-11-20T19:51:20.286Z,98005.86
2017-11-20T19:53:48.543Z,97991.98
2017-11-20T19:56:16.794Z,97998.41
2017-11-20T19:58:45.064Z,97994.20
2017-11-20T20:01:14.083Z,97982.85
2017-11-20T20:03:42.343Z,97988.43
2017-11-20T20:06:10.647Z,97989.30
2017-11-20T20:08:38.873Z,98008.20
2017-11-20T20:11:07.903Z,97992.70
2017-11-20T20:13:53.932Z,97989.81
2017-11-20T20:16:34.423Z,97987.23
2017-11-20T20:19:04.669Z,97979.63
2017-11-20T20:21:32.979Z,97957.88
2017-11-20T20:24:01.222Z,97964.20
2017-11-20T20:26:29.496Z,97966.81
2017-11-20T20:28:57.735Z,97964.22
2017-11-20T20:31:26.239Z,97963.86
2017-11-20T20:33:55.253Z,97959.17
2017-11-20T20:36:23.746Z,97972.70
2017-11-20T20:38:52.089Z,97965.63
2017-11-20T20:41:20.433Z,97953.52
2017-11-20T20:43:48.696Z,97960.05
2017-11-20T20:46:17.047Z,97950.80
2017-11-20T20:48:45.425Z,97952.16
2017-11-20T20:51:13.859Z,97953.02
2017-11-20T20:53:42.950Z,97940.78
2017-11-20T20:56:11.485Z,97949.23
2017-11-20T20:58:39.808Z,97938.39
2017-11-20T21:01:08.146Z,97939.59
2017-11-20T21:03:37.285Z,97941.70
2017-11-20T21:06:05.594Z,97934.30
2017-11-20T21:08:33.857Z,97936.10
2017-11-20T21:11:08.513Z,97947.48
2017-11-20T21:13:36.922Z,97949.19
2017-11-20T21:16:05.232Z,97943.00
2017-11-20T21:18:34.300Z,97935.44
2017-11-20T21:21:02.605Z,97950.70
2017-11-20T21:23:31.667Z,97938.58
2017-11-20T21:25:59.955Z,97930.71
2017-11-20T21:28:28.359Z,97936.33
2017-11-20T21:30:56.646Z,97936.73
2017-11-20T21:33:24.999Z,97939.17
2017-11-20T21:35:54.095Z,97945.19
2017-11-20T21:38:23.140Z,97936.83
2017-11-20T21:40:51.418Z,97926.23
2017-11-20T21:43:19.706Z,97926.44
2017-11-20T21:45:47.979Z,97937.58
2017-11-20T21:48:16.261Z,97934.19
2017-11-20T21:50:44.544Z,97930.45
2017-11-20T21:53:14.333Z,97938.00
2017-11-20T21:55:42.608Z,97936.75
2017-11-20T21:58:10.899Z,97940.23
2017-11-20T22:00:39.200Z,97931.83
2017-11-20T22:03:08.251Z,97931.91
2017-11-20T22:05:36.562Z,97932.02
2017-11-20T22:08:04.933Z,97923.20
2017-11-20T22:10:33.239Z,97928.86
2017-11-20T22:13:19.952Z,97927.70
2017-11-20T22:15:48.996Z,97926.50
2017-11-20T22:18:17.266Z,97935.81
2017-11-20T22:20:45.546Z,97924.50
2017-11-20T22:23:13.820Z,97912.75
2017-11-20T22:25:42.095Z,97907.83
2017-11-20T22:28:10.361Z,97898.20
2017-11-20T22:30:38.628Z,97902.12
2017-11-20T22:33:06.905Z,97901.38
2017-11-20T22:35:35.194Z,97892.66
2017-11-20T22:38:03.465Z,97889.35
2017-11-20T22:40:31.754Z,97891.08
2017-11-20T22:43:00.037Z,97894.55
2017-11-20T22:45:28.343Z,97888.37
2017-11-20T22:47:56.599Z,97887.05
2017-11-20T22:50:24.857Z,97900.12
2017-11-20T22:52:53.131Z,97899.91
2017-11-20T22:55:21.409Z,97896.30
2017-11-20T22:57:49.654Z,97893.30
2017-11-20T23:00:17.928Z,97889.13
2017-11-20T23:02:46.225Z,97898.05
2017-11-20T23:05:14.477Z,97900.56
2017-11-20T23:07:42.740Z,97904.30
2017-11-20T23:10:11.938Z,97905.53
2017-11-20T23:12:41.030Z,97917.36
2017-11-20T23:15:10.067Z,97902.17
2017-11-20T23:17:38.367Z,97896.27
2017-11-20T23:20:06.662Z,97894.59
2017-11-20T23:22:34.995Z,97887.02
2017-11-20T23:25:03.283Z,97886.60
2017-11-20T23:27:31.572Z,97892.49
2017-11-20T23:29:59.846Z,97882.47
2017-11-20T23:32:28.899Z,97890.06
2017-11-20T23:34:57.166Z,97873.27
2017-11-20T23:37:25.434Z,97891.80
2017-11-20T23:39:53.705Z,97891.85
2017-11-20T23:42:22.723Z,97900.71
2017-11-20T23:44:50.985Z,97896.63
2017-11-20T23:47:19.236Z,97893.36
2017-11-20T23:49:48.271Z,97885.36
2017-11-20T23:52:16.521Z,97897.53
2017-11-20T23:54:44.790Z,97891.27
2017-11-20T23:57:13.814Z,97899.06
2017-11-20T23:59:42.080Z,97904.08
